sensor_id;sensor_type;location;lat;lon;timestamp;pressure;altitude;pressure_sealevel;temperature;humidity
76484;BME280;65318;-33.924;18.406;2022-12-20T00:01:37;100449.92;;;29.10;29.51
76484;BME280;65318;-33.924;18.406;2022-12-20T00:04:04;100473.59;;;28.45;30.06
76484;BME280;65318;-33.924;18.406;2022-12-20T00:06:29;100474.72;;;28.58;29.72
76484;BME280;65318;-33.924;18.406;2022-12-20T00:08:55;100485.04;;;28.86;29.44
76484;BME280;65318;-33.924;18.406;2022-12-20T00:11:19;100470.46;;;28.46;29.81
76484;BME280;65318;-33.924;18.406;2022-12-20T00:13:46;100479.80;;;28.68;29.60
76484;BME280;65318;-33.924;18.406;2022-12-20T00:16:12;100486.03;;;29.33;29.23
76484;BME280;65318;-33.924;18.406;2022-12-20T00:18:41;100486.97;;;28.46;29.81
76484;BME280;65318;-33.924;18.406;2022-12-20T00:21:02;100485.87;;;28.80;29.74
76484;BME280;65318;-33.924;18.406;2022-12-20T00:23:27;100499.21;;;28.87;29.68
76484;BME280;65318;-33.924;18.406;2022-12-20T00:25:52;100496.42;;;29.01;29.53
76484;BME280;65318;-33.924;18.406;2022-12-20T00:28:17;100473.99;;;28.66;29.62
76484;BME280;65318;-33.924;18.406;2022-12-20T00:30:43;100493.90;;;28.87;29.65
76484;BME280;65318;-33.924;18.406;2022-12-20T00:33:09;100496.00;;;28.82;29.72
76484;BME280;65318;-33.924;18.406;2022-12-20T00:35:34;100498.89;;;28.65;29.85
76484;BME280;65318;-33.924;18.406;2022-12-20T00:37:59;100490.65;;;28.88;29.66
76484;BME280;65318;-33.924;18.406;2022-12-20T00:40:25;100484.69;;;28.37;29.88
76484;BME280;65318;-33.924;18.406;2022-12-20T00:42:51;100483.67;;;28.68;29.78
76484;BME280;65318;-33.924;18.406;2022-12-20T00:45:16;100492.59;;;28.52;30.01
76484;BME280;65318;-33.924;18.406;2022-12-20T00:47:41;100489.47;;;28.73;29.79
76484;BME280;65318;-33.924;18.406;2022-12-20T00:50:08;100485.43;;;28.70;29.81
76484;BME280;65318;-33.924;18.406;2022-12-20T00:52:32;100502.41;;;28.18;29.85
76484;BME280;65318;-33.924;18.406;2022-12-20T00:54:59;100509.88;;;28.63;29.89
76484;BME280;65318;-33.924;18.406;2022-12-20T00:57:23;100494.66;;;28.85;29.73
76484;BME280;65318;-33.924;18.406;2022-12-20T00:59:49;100483.96;;;27.88;30.68
76484;BME280;65318;-33.924;18.406;2022-12-20T01:02:14;100496.80;;;27.82;30.57
76484;BME280;65318;-33.924;18.406;2022-12-20T01:04:40;100501.68;;;28.63;30.02
76484;BME280;65318;-33.924;18.406;2022-12-20T01:07:06;100509.74;;;28.43;30.03
76484;BME280;65318;-33.924;18.406;2022-12-20T01:09:31;100507.74;;;28.57;30.11
76484;BME280;65318;-33.924;18.406;2022-12-20T01:11:56;100500.37;;;28.36;30.13
76484;BME280;65318;-33.924;18.406;2022-12-20T01:14:22;100499.20;;;28.16;30.36
76484;BME280;65318;-33.924;18.406;2022-12-20T01:16:47;100498.50;;;27.82;30.90
76484;BME280;65318;-33.924;18.406;2022-12-20T01:19:15;100508.20;;;27.53;31.29
76484;BME280;65318;-33.924;18.406;2022-12-20T01:21:39;100509.32;;;28.66;30.21
76484;BME280;65318;-33.924;18.406;2022-12-20T01:24:04;100515.66;;;28.58;30.22
76484;BME280;65318;-33.924;18.406;2022-12-20T01:26:29;100513.48;;;28.61;30.23
76484;BME280;65318;-33.924;18.406;2022-12-20T01:28:57;100509.86;;;28.61;30.26
76484;BME280;65318;-33.924;18.406;2022-12-20T01:31:21;100502.21;;;28.78;30.07
76484;BME280;65318;-33.924;18.406;2022-12-20T01:33:47;100518.62;;;28.64;30.22
76484;BME280;65318;-33.924;18.406;2022-12-20T01:36:15;100510.37;;;27.42;31.48
76484;BME280;65318;-33.924;18.406;2022-12-20T01:38:37;100504.56;;;27.14;31.59
76484;BME280;65318;-33.924;18.406;2022-12-20T01:41:03;100518.29;;;28.05;30.86
76484;BME280;65318;-33.924;18.406;2022-12-20T01:45:54;100498.44;;;28.50;30.35
76484;BME280;65318;-33.924;18.406;2022-12-20T01:48:23;100494.07;;;28.61;30.19
76484;BME280;65318;-33.924;18.406;2022-12-20T01:50:45;100490.89;;;28.52;30.05
76484;BME280;65318;-33.924;18.406;2022-12-20T01:53:10;100500.54;;;28.68;30.15
76484;BME280;65318;-33.924;18.406;2022-12-20T01:55:36;100499.60;;;28.04;30.55
76484;BME280;65318;-33.924;18.406;2022-12-20T01:58:03;100498.69;;;27.17;31.65
76484;BME280;65318;-33.924;18.406;2022-12-20T02:00:27;100502.01;;;25.99;32.55
76484;BME280;65318;-33.924;18.406;2022-12-20T02:02:52;100499.50;;;28.26;30.57
76484;BME280;65318;-33.924;18.406;2022-12-20T02:05:19;100514.70;;;27.32;31.23
76484;BME280;65318;-33.924;18.406;2022-12-20T02:07:45;100513.91;;;27.99;30.53
76484;BME280;65318;-33.924;18.406;2022-12-20T02:10:10;100493.02;;;28.44;30.33
76484;BME280;65318;-33.924;18.406;2022-12-20T02:12:39;100520.21;;;26.84;31.94
76484;BME280;65318;-33.924;18.406;2022-12-20T02:15:09;100502.28;;;28.33;30.47
76484;BME280;65318;-33.924;18.406;2022-12-20T02:17:33;100506.08;;;28.68;30.29
76484;BME280;65318;-33.924;18.406;2022-12-20T02:20:05;100500.50;;;28.64;30.05
76484;BME280;65318;-33.924;18.406;2022-12-20T02:22:24;100495.77;;;28.61;30.07
76484;BME280;65318;-33.924;18.406;2022-12-20T02:24:56;100491.30;;;27.86;30.83
76484;BME280;65318;-33.924;18.406;2022-12-20T02:29:35;100494.11;;;28.05;30.80
76484;BME280;65318;-33.924;18.406;2022-12-20T02:32:02;100505.90;;;28.34;30.28
76484;BME280;65318;-33.924;18.406;2022-12-20T02:34:24;100501.90;;;28.45;30.19
76484;BME280;65318;-33.924;18.406;2022-12-20T02:36:48;100483.15;;;27.97;30.64
76484;BME280;65318;-33.924;18.406;2022-12-20T02:39:16;100502.52;;;27.59;30.77
76484;BME280;65318;-33.924;18.406;2022-12-20T02:41:44;100502.17;;;28.15;30.27
76484;BME280;65318;-33.924;18.406;2022-12-20T02:44:08;100479.02;;;28.76;30.30
76484;BME280;65318;-33.924;18.406;2022-12-20T02:46:31;100508.40;;;28.20;30.44
76484;BME280;65318;-33.924;18.406;2022-12-20T02:49:00;100507.25;;;28.31;30.31
76484;BME280;65318;-33.924;18.406;2022-12-20T02:51:23;100504.44;;;28.65;29.77
76484;BME280;65318;-33.924;18.406;2022-12-20T02:53:47;100513.89;;;28.33;30.25
76484;BME280;65318;-33.924;18.406;2022-12-20T02:56:15;100504.85;;;27.89;30.50
76484;BME280;65318;-33.924;18.406;2022-12-20T02:58:43;100500.51;;;28.14;30.27
76484;BME280;65318;-33.924;18.406;2022-12-20T03:01:09;100488.13;;;28.48;30.19
76484;BME280;65318;-33.924;18.406;2022-12-20T03:03:29;100490.17;;;28.21;30.43
76484;BME280;65318;-33.924;18.406;2022-12-20T03:05:55;100512.20;;;28.44;30.21
76484;BME280;65318;-33.924;18.406;2022-12-20T03:08:21;100509.39;;;27.84;30.80
76484;BME280;65318;-33.924;18.406;2022-12-20T03:10:45;100520.54;;;27.23;31.64
76484;BME280;65318;-33.924;18.406;2022-12-20T03:13:11;100511.50;;;27.64;30.97
76484;BME280;65318;-33.924;18.406;2022-12-20T03:15:36;100505.96;;;26.79;31.82
76484;BME280;65318;-33.924;18.406;2022-12-20T03:18:02;100497.47;;;28.38;30.21
76484;BME280;65318;-33.924;18.406;2022-12-20T03:20:28;100517.12;;;26.60;31.96
76484;BME280;65318;-33.924;18.406;2022-12-20T03:22:53;100495.06;;;28.27;30.58
76484;BME280;65318;-33.924;18.406;2022-12-20T03:25:18;100521.08;;;27.52;31.08
76484;BME280;65318;-33.924;18.406;2022-12-20T03:27:44;100508.34;;;28.22;30.31
76484;BME280;65318;-33.924;18.406;2022-12-20T03:30:10;100501.13;;;28.32;30.18
76484;BME280;65318;-33.924;18.406;2022-12-20T03:32:35;100519.05;;;27.69;30.73
76484;BME280;65318;-33.924;18.406;2022-12-20T03:35:01;100522.14;;;28.19;30.29
76484;BME280;65318;-33.924;18.406;2022-12-20T03:37:26;100482.83;;;27.99;30.42
76484;BME280;65318;-33.924;18.406;2022-12-20T03:39:52;100525.95;;;27.89;30.48
76484;BME280;65318;-33.924;18.406;2022-12-20T03:42:17;100527.80;;;28.34;30.29
76484;BME280;65318;-33.924;18.406;2022-12-20T03:44:43;100529.24;;;27.99;30.50
76484;BME280;65318;-33.924;18.406;2022-12-20T03:47:09;100521.68;;;28.06;30.39
76484;BME280;65318;-33.924;18.406;2022-12-20T03:49:34;100539.89;;;27.98;30.47
76484;BME280;65318;-33.924;18.406;2022-12-20T03:51:59;100524.23;;;28.38;30.13
76484;BME280;65318;-33.924;18.406;2022-12-20T03:54:25;100532.15;;;27.78;30.71
76484;BME280;65318;-33.924;18.406;2022-12-20T03:56:50;100531.80;;;28.60;29.96
76484;BME280;65318;-33.924;18.406;2022-12-20T03:59:16;100523.18;;;28.42;30.12
76484;BME280;65318;-33.924;18.406;2022-12-20T04:01:41;100529.87;;;28.47;30.06
76484;BME280;65318;-33.924;18.406;2022-12-20T04:04:09;100548.35;;;28.07;30.00
76484;BME280;65318;-33.924;18.406;2022-12-20T04:06:32;100519.40;;;28.58;29.94
76484;BME280;65318;-33.924;18.406;2022-12-20T04:08:58;100541.13;;;27.49;31.14
76484;BME280;65318;-33.924;18.406;2022-12-20T04:11:23;100543.75;;;28.24;30.21
76484;BME280;65318;-33.924;18.406;2022-12-20T04:13:50;100548.17;;;28.72;29.66
76484;BME280;65318;-33.924;18.406;2022-12-20T04:16:16;100546.97;;;28.73;29.63
76484;BME280;65318;-33.924;18.406;2022-12-20T04:18:40;100546.09;;;28.80;29.45
76484;BME280;65318;-33.924;18.406;2022-12-20T04:21:06;100550.58;;;29.59;28.75
76484;BME280;65318;-33.924;18.406;2022-12-20T04:23:31;100564.75;;;29.55;28.66
76484;BME280;65318;-33.924;18.406;2022-12-20T04:25:56;100557.68;;;29.47;28.53
76484;BME280;65318;-33.924;18.406;2022-12-20T04:28:22;100544.42;;;29.82;28.21
76484;BME280;65318;-33.924;18.406;2022-12-20T04:30:47;100551.58;;;30.08;28.01
76484;BME280;65318;-33.924;18.406;2022-12-20T04:33:13;100560.05;;;30.08;27.79
76484;BME280;65318;-33.924;18.406;2022-12-20T04:35:38;100556.23;;;29.83;28.25
76484;BME280;65318;-33.924;18.406;2022-12-20T04:38:04;100564.28;;;30.17;28.16
76484;BME280;65318;-33.924;18.406;2022-12-20T04:40:29;100571.81;;;29.74;28.34
76484;BME280;65318;-33.924;18.406;2022-12-20T04:42:55;100569.37;;;28.91;29.31
76484;BME280;65318;-33.924;18.406;2022-12-20T04:45:21;100570.78;;;28.51;29.44
76484;BME280;65318;-33.924;18.406;2022-12-20T04:47:46;100576.62;;;28.94;29.28
76484;BME280;65318;-33.924;18.406;2022-12-20T04:50:11;100581.19;;;28.64;29.29
76484;BME280;65318;-33.924;18.406;2022-12-20T04:52:37;100580.30;;;28.80;29.39
76484;BME280;65318;-33.924;18.406;2022-12-20T04:55:03;100587.25;;;29.37;28.81
76484;BME280;65318;-33.924;18.406;2022-12-20T04:57:28;100592.91;;;28.42;29.71
76484;BME280;65318;-33.924;18.406;2022-12-20T04:59:53;100594.20;;;29.10;29.13
76484;BME280;65318;-33.924;18.406;2022-12-20T05:02:19;100585.01;;;28.50;29.64
76484;BME280;65318;-33.924;18.406;2022-12-20T05:04:44;100581.34;;;29.29;29.11
76484;BME280;65318;-33.924;18.406;2022-12-20T05:07:10;100587.47;;;29.09;29.17
76484;BME280;65318;-33.924;18.406;2022-12-20T05:09:36;100600.56;;;28.59;29.51
76484;BME280;65318;-33.924;18.406;2022-12-20T05:12:01;100606.09;;;29.77;28.60
76484;BME280;65318;-33.924;18.406;2022-12-20T05:14:27;100610.74;;;29.46;28.86
76484;BME280;65318;-33.924;18.406;2022-12-20T05:16:52;100620.27;;;29.20;28.89
76484;BME280;65318;-33.924;18.406;2022-12-20T05:19:17;100620.33;;;29.18;28.97
76484;BME280;65318;-33.924;18.406;2022-12-20T05:21:43;100622.66;;;28.55;29.39
76484;BME280;65318;-33.924;18.406;2022-12-20T05:24:09;100623.48;;;29.45;28.84
76484;BME280;65318;-33.924;18.406;2022-12-20T05:26:36;100632.77;;;28.94;29.03
76484;BME280;65318;-33.924;18.406;2022-12-20T05:28:59;100631.68;;;29.19;28.61
76484;BME280;65318;-33.924;18.406;2022-12-20T05:31:25;100630.85;;;29.78;28.55
76484;BME280;65318;-33.924;18.406;2022-12-20T05:33:51;100634.48;;;28.78;29.45
76484;BME280;65318;-33.924;18.406;2022-12-20T05:36:16;100646.62;;;29.02;28.79
76484;BME280;65318;-33.924;18.406;2022-12-20T05:38:42;100651.39;;;30.00;28.22
76484;BME280;65318;-33.924;18.406;2022-12-20T05:41:07;100664.36;;;29.10;28.74
76484;BME280;65318;-33.924;18.406;2022-12-20T05:43:33;100653.45;;;29.16;29.14
76484;BME280;65318;-33.924;18.406;2022-12-20T05:45:58;100656.55;;;29.83;28.57
76484;BME280;65318;-33.924;18.406;2022-12-20T05:48:24;100657.20;;;28.94;28.97
76484;BME280;65318;-33.924;18.406;2022-12-20T05:50:49;100653.24;;;28.83;29.06
76484;BME280;65318;-33.924;18.406;2022-12-20T05:53:16;100658.07;;;29.46;28.41
76484;BME280;65318;-33.924;18.406;2022-12-20T05:55:43;100665.80;;;28.62;29.25
76484;BME280;65318;-33.924;18.406;2022-12-20T05:58:06;100662.61;;;29.49;28.38
76484;BME280;65318;-33.924;18.406;2022-12-20T06:00:31;100660.54;;;29.87;28.05
76484;BME280;65318;-33.924;18.406;2022-12-20T06:02:56;100657.36;;;29.25;28.59
76484;BME280;65318;-33.924;18.406;2022-12-20T06:05:22;100655.05;;;30.03;27.76
76484;BME280;65318;-33.924;18.406;2022-12-20T06:07:47;100650.30;;;30.12;27.57
76484;BME280;65318;-33.924;18.406;2022-12-20T06:10:13;100656.61;;;30.21;27.34
76484;BME280;65318;-33.924;18.406;2022-12-20T06:12:38;100668.81;;;29.93;27.50
76484;BME280;65318;-33.924;18.406;2022-12-20T06:15:04;100674.78;;;30.50;27.22
76484;BME280;65318;-33.924;18.406;2022-12-20T06:17:29;100678.69;;;30.53;27.13
76484;BME280;65318;-33.924;18.406;2022-12-20T06:19:55;100681.43;;;30.53;27.30
76484;BME280;65318;-33.924;18.406;2022-12-20T06:22:20;100683.73;;;30.11;27.38
76484;BME280;65318;-33.924;18.406;2022-12-20T06:24:46;100681.49;;;29.99;27.54
76484;BME280;65318;-33.924;18.406;2022-12-20T06:27:11;100687.69;;;29.73;27.90
76484;BME280;65318;-33.924;18.406;2022-12-20T06:29:36;100688.72;;;29.66;27.94
76484;BME280;65318;-33.924;18.406;2022-12-20T06:32:02;100683.11;;;29.36;28.19
76484;BME280;65318;-33.924;18.406;2022-12-20T06:34:28;100682.30;;;30.34;27.32
76484;BME280;65318;-33.924;18.406;2022-12-20T06:36:53;100677.13;;;29.35;28.24
76484;BME280;65318;-33.924;18.406;2022-12-20T06:39:18;100672.08;;;29.15;28.31
76484;BME280;65318;-33.924;18.406;2022-12-20T06:41:44;100676.78;;;30.07;27.48
76484;BME280;65318;-33.924;18.406;2022-12-20T06:44:09;100679.76;;;29.86;27.82
76484;BME280;65318;-33.924;18.406;2022-12-20T06:46:35;100677.05;;;29.36;28.32
76484;BME280;65318;-33.924;18.406;2022-12-20T06:49:00;100685.00;;;30.01;27.50
76484;BME280;65318;-33.924;18.406;2022-12-20T06:51:26;100691.87;;;29.82;27.87
76484;BME280;65318;-33.924;18.406;2022-12-20T06:53:51;100698.41;;;29.76;27.91
76484;BME280;65318;-33.924;18.406;2022-12-20T06:56:17;100702.61;;;30.06;27.72
76484;BME280;65318;-33.924;18.406;2022-12-20T06:58:43;100699.71;;;29.79;28.00
76484;BME280;65318;-33.924;18.406;2022-12-20T07:01:08;100694.69;;;29.70;28.04
76484;BME280;65318;-33.924;18.406;2022-12-20T07:03:33;100695.64;;;30.15;27.69
76484;BME280;65318;-33.924;18.406;2022-12-20T07:05:58;100697.57;;;29.54;28.21
76484;BME280;65318;-33.924;18.406;2022-12-20T07:08:24;100690.55;;;29.93;27.91
76484;BME280;65318;-33.924;18.406;2022-12-20T07:10:50;100692.44;;;30.29;27.58
76484;BME280;65318;-33.924;18.406;2022-12-20T07:13:15;100688.48;;;29.59;28.03
76484;BME280;65318;-33.924;18.406;2022-12-20T07:15:40;100697.14;;;30.51;27.37
76484;BME280;65318;-33.924;18.406;2022-12-20T07:18:06;100713.90;;;30.54;26.90
76484;BME280;65318;-33.924;18.406;2022-12-20T07:20:32;100690.13;;;30.63;26.98
76484;BME280;65318;-33.924;18.406;2022-12-20T07:22:57;100698.44;;;30.20;27.08
76484;BME280;65318;-33.924;18.406;2022-12-20T07:25:22;100698.77;;;30.45;27.03
76484;BME280;65318;-33.924;18.406;2022-12-20T07:27:48;100699.56;;;30.72;27.03
76484;BME280;65318;-33.924;18.406;2022-12-20T07:30:13;100693.66;;;30.09;27.08
76484;BME280;65318;-33.924;18.406;2022-12-20T07:32:39;100687.00;;;30.33;27.11
76484;BME280;65318;-33.924;18.406;2022-12-20T07:35:05;100689.42;;;30.41;27.13
76484;BME280;65318;-33.924;18.406;2022-12-20T07:37:30;100679.18;;;30.56;27.01
76484;BME280;65318;-33.924;18.406;2022-12-20T07:39:55;100679.69;;;30.51;27.24
76484;BME280;65318;-33.924;18.406;2022-12-20T07:42:21;100681.41;;;30.47;27.26
76484;BME280;65318;-33.924;18.406;2022-12-20T07:44:46;100676.82;;;30.26;27.46
76484;BME280;65318;-33.924;18.406;2022-12-20T07:47:12;100671.31;;;30.20;27.33
76484;BME280;65318;-33.924;18.406;2022-12-20T07:49:37;100678.78;;;30.27;27.23
76484;BME280;65318;-33.924;18.406;2022-12-20T07:52:03;100684.91;;;29.97;27.66
76484;BME280;65318;-33.924;18.406;2022-12-20T07:54:32;100683.31;;;30.10;27.56
76484;BME280;65318;-33.924;18.406;2022-12-20T07:56:56;100678.68;;;29.88;27.72
76484;BME280;65318;-33.924;18.406;2022-12-20T07:59:23;100684.55;;;30.15;27.50
76484;BME280;65318;-33.924;18.406;2022-12-20T08:01:45;100683.43;;;29.54;27.94
76484;BME280;65318;-33.924;18.406;2022-12-20T08:04:13;100684.16;;;29.69;27.69
76484;BME280;65318;-33.924;18.406;2022-12-20T08:06:36;100683.96;;;30.69;26.63
76484;BME280;65318;-33.924;18.406;2022-12-20T08:09:04;100693.08;;;30.69;26.89
76484;BME280;65318;-33.924;18.406;2022-12-20T08:11:28;100687.67;;;30.15;27.19
76484;BME280;65318;-33.924;18.406;2022-12-20T08:13:52;100670.18;;;30.85;27.12
76484;BME280;65318;-33.924;18.406;2022-12-20T08:16:18;100673.03;;;30.78;26.90
76484;BME280;65318;-33.924;18.406;2022-12-20T08:18:43;100672.84;;;29.98;27.57
76484;BME280;65318;-33.924;18.406;2022-12-20T08:21:09;100668.58;;;30.29;27.30
76484;BME280;65318;-33.924;18.406;2022-12-20T08:23:34;100678.89;;;30.41;27.62
76484;BME280;65318;-33.924;18.406;2022-12-20T08:26:00;100666.96;;;30.18;27.77
76484;BME280;65318;-33.924;18.406;2022-12-20T08:28:25;100672.55;;;30.31;27.43
76484;BME280;65318;-33.924;18.406;2022-12-20T08:30:51;100656.80;;;30.55;27.50
76484;BME280;65318;-33.924;18.406;2022-12-20T08:33:16;100651.02;;;30.42;27.36
76484;BME280;65318;-33.924;18.406;2022-12-20T08:35:42;100654.93;;;30.44;27.35
76484;BME280;65318;-33.924;18.406;2022-12-20T08:38:07;100647.69;;;31.54;26.79
76484;BME280;65318;-33.924;18.406;2022-12-20T08:40:33;100644.65;;;31.05;27.30
76484;BME280;65318;-33.924;18.406;2022-12-20T08:42:58;100644.80;;;30.77;27.54
76484;BME280;65318;-33.924;18.406;2022-12-20T08:45:24;100648.33;;;30.92;27.48
76484;BME280;65318;-33.924;18.406;2022-12-20T08:47:49;100643.73;;;30.81;27.61
76484;BME280;65318;-33.924;18.406;2022-12-20T08:50:15;100646.92;;;29.82;27.98
76484;BME280;65318;-33.924;18.406;2022-12-20T08:52:40;100645.17;;;30.84;27.14
76484;BME280;65318;-33.924;18.406;2022-12-20T08:55:06;100646.93;;;29.88;27.99
76484;BME280;65318;-33.924;18.406;2022-12-20T08:57:31;100632.29;;;30.45;27.47
76484;BME280;65318;-33.924;18.406;2022-12-20T08:59:57;100630.44;;;30.61;27.68
76484;BME280;65318;-33.924;18.406;2022-12-20T09:02:22;100631.74;;;30.25;27.53
76484;BME280;65318;-33.924;18.406;2022-12-20T09:04:47;100633.54;;;30.48;27.20
76484;BME280;65318;-33.924;18.406;2022-12-20T09:07:13;100628.30;;;31.10;26.85
76484;BME280;65318;-33.924;18.406;2022-12-20T09:09:38;100627.66;;;30.68;27.21
76484;BME280;65318;-33.924;18.406;2022-12-20T09:12:05;100626.99;;;31.13;27.03
76484;BME280;65318;-33.924;18.406;2022-12-20T09:14:29;100633.57;;;30.46;27.41
76484;BME280;65318;-33.924;18.406;2022-12-20T09:16:55;100629.53;;;30.21;27.65
76484;BME280;65318;-33.924;18.406;2022-12-20T09:19:20;100632.95;;;30.14;27.71
76484;BME280;65318;-33.924;18.406;2022-12-20T09:21:46;100642.71;;;29.95;28.10
76484;BME280;65318;-33.924;18.406;2022-12-20T09:24:12;100642.59;;;30.40;27.49
76484;BME280;65318;-33.924;18.406;2022-12-20T09:26:37;100635.51;;;30.82;27.38
76484;BME280;65318;-33.924;18.406;2022-12-20T09:29:03;100633.46;;;30.66;27.41
76484;BME280;65318;-33.924;18.406;2022-12-20T09:31:28;100629.00;;;30.90;27.44
76484;BME280;65318;-33.924;18.406;2022-12-20T09:33:54;100622.78;;;30.76;27.40
76484;BME280;65318;-33.924;18.406;2022-12-20T09:36:20;100633.93;;;30.23;27.74
76484;BME280;65318;-33.924;18.406;2022-12-20T09:38:45;100618.28;;;30.51;27.82
76484;BME280;65318;-33.924;18.406;2022-12-20T09:41:16;100623.60;;;29.76;28.14
76484;BME280;65318;-33.924;18.406;2022-12-20T09:43:36;100621.56;;;30.89;27.48
76484;BME280;65318;-33.924;18.406;2022-12-20T09:46:02;100616.74;;;30.61;27.44
76484;BME280;65318;-33.924;18.406;2022-12-20T09:48:31;100618.72;;;30.43;28.05
76484;BME280;65318;-33.924;18.406;2022-12-20T09:51:01;100622.11;;;30.25;28.06
76484;BME280;65318;-33.924;18.406;2022-12-20T09:53:26;100608.85;;;30.30;28.00
76484;BME280;65318;-33.924;18.406;2022-12-20T09:55:47;100614.44;;;30.68;27.56
76484;BME280;65318;-33.924;18.406;2022-12-20T09:58:20;100615.53;;;30.61;27.85
76484;BME280;65318;-33.924;18.406;2022-12-20T10:00:37;100612.65;;;31.32;27.11
76484;BME280;65318;-33.924;18.406;2022-12-20T10:03:02;100616.72;;;31.65;26.82
76484;BME280;65318;-33.924;18.406;2022-12-20T10:05:31;100617.27;;;30.93;27.38
76484;BME280;65318;-33.924;18.406;2022-12-20T10:07:54;100600.77;;;30.99;27.38
76484;BME280;65318;-33.924;18.406;2022-12-20T10:10:37;100600.48;;;31.15;27.28
76484;BME280;65318;-33.924;18.406;2022-12-20T10:12:45;100588.55;;;30.67;27.74
76484;BME280;65318;-33.924;18.406;2022-12-20T10:15:18;100585.92;;;30.78;27.93
76484;BME280;65318;-33.924;18.406;2022-12-20T10:17:41;100574.31;;;30.45;28.07
76484;BME280;65318;-33.924;18.406;2022-12-20T10:20:08;100587.19;;;30.57;28.20
76484;BME280;65318;-33.924;18.406;2022-12-20T10:22:27;100589.21;;;30.87;27.80
76484;BME280;65318;-33.924;18.406;2022-12-20T10:24:55;100587.20;;;31.51;26.89
76484;BME280;65318;-33.924;18.406;2022-12-20T10:27:16;100581.82;;;30.63;27.44
76484;BME280;65318;-33.924;18.406;2022-12-20T10:29:40;100587.74;;;30.57;27.61
76484;BME280;65318;-33.924;18.406;2022-12-20T10:32:11;100576.99;;;30.09;28.68
76484;BME280;65318;-33.924;18.406;2022-12-20T10:34:30;100581.40;;;30.99;27.52
76484;BME280;65318;-33.924;18.406;2022-12-20T10:37:10;100587.07;;;30.38;28.31
76484;BME280;65318;-33.924;18.406;2022-12-20T10:39:38;100577.78;;;31.37;27.58
76484;BME280;65318;-33.924;18.406;2022-12-20T10:41:48;100572.44;;;30.94;27.92
76484;BME280;65318;-33.924;18.406;2022-12-20T10:44:19;100573.00;;;31.48;27.68
76484;BME280;65318;-33.924;18.406;2022-12-20T10:46:40;100570.83;;;31.21;27.61
76484;BME280;65318;-33.924;18.406;2022-12-20T10:51:29;100573.76;;;31.06;28.49
76484;BME280;65318;-33.924;18.406;2022-12-20T10:53:56;100567.97;;;30.20;28.86
76484;BME280;65318;-33.924;18.406;2022-12-20T10:56:23;100555.94;;;30.82;28.00
76484;BME280;65318;-33.924;18.406;2022-12-20T10:58:51;100566.05;;;30.86;28.27
76484;BME280;65318;-33.924;18.406;2022-12-20T11:01:13;100572.99;;;31.20;28.01
76484;BME280;65318;-33.924;18.406;2022-12-20T11:03:54;100557.37;;;31.09;28.52
76484;BME280;65318;-33.924;18.406;2022-12-20T11:06:03;100551.88;;;31.73;28.31
76484;BME280;65318;-33.924;18.406;2022-12-20T11:08:28;100528.54;;;30.74;28.68
76484;BME280;65318;-33.924;18.406;2022-12-20T11:13:21;100516.72;;;30.46;28.48
76484;BME280;65318;-33.924;18.406;2022-12-20T11:15:48;100527.02;;;30.51;28.65
76484;BME280;65318;-33.924;18.406;2022-12-20T11:18:14;100540.14;;;30.91;28.27
76484;BME280;65318;-33.924;18.406;2022-12-20T11:20:37;100542.60;;;30.38;28.67
76484;BME280;65318;-33.924;18.406;2022-12-20T11:23:09;100530.12;;;30.94;28.24
76484;BME280;65318;-33.924;18.406;2022-12-20T11:25:36;100518.87;;;31.38;27.61
76484;BME280;65318;-33.924;18.406;2022-12-20T11:27:56;100521.14;;;31.35;27.84
76484;BME280;65318;-33.924;18.406;2022-12-20T11:30:18;100515.60;;;30.81;28.07
76484;BME280;65318;-33.924;18.406;2022-12-20T11:32:56;100501.73;;;31.26;27.63
76484;BME280;65318;-33.924;18.406;2022-12-20T11:35:11;100534.38;;;31.16;27.53
76484;BME280;65318;-33.924;18.406;2022-12-20T11:37:35;100512.86;;;30.17;28.32
76484;BME280;65318;-33.924;18.406;2022-12-20T11:40:05;100510.80;;;30.63;27.98
76484;BME280;65318;-33.924;18.406;2022-12-20T11:42:26;100479.84;;;30.73;27.49
76484;BME280;65318;-33.924;18.406;2022-12-20T11:44:54;100491.78;;;30.92;27.45
76484;BME280;65318;-33.924;18.406;2022-12-20T11:47:26;100483.36;;;30.64;27.36
76484;BME280;65318;-33.924;18.406;2022-12-20T11:49:52;100492.52;;;30.92;27.17
76484;BME280;65318;-33.924;18.406;2022-12-20T11:52:08;100493.14;;;31.30;26.83
76484;BME280;65318;-33.924;18.406;2022-12-20T11:54:31;100473.08;;;30.96;27.25
76484;BME280;65318;-33.924;18.406;2022-12-20T11:56:58;100477.09;;;31.24;26.89
76484;BME280;65318;-33.924;18.406;2022-12-20T11:59:24;100490.91;;;30.97;27.03
76484;BME280;65318;-33.924;18.406;2022-12-20T12:01:49;100489.36;;;30.60;27.37
76484;BME280;65318;-33.924;18.406;2022-12-20T12:04:15;100490.45;;;31.12;27.13
76484;BME280;65318;-33.924;18.406;2022-12-20T12:06:37;100478.03;;;31.09;26.99
76484;BME280;65318;-33.924;18.406;2022-12-20T12:09:10;100472.28;;;30.70;27.47
76484;BME280;65318;-33.924;18.406;2022-12-20T12:11:29;100481.69;;;31.11;26.98
76484;BME280;65318;-33.924;18.406;2022-12-20T12:13:52;100478.10;;;31.44;26.79
76484;BME280;65318;-33.924;18.406;2022-12-20T12:16:20;100488.57;;;30.93;26.91
76484;BME280;65318;-33.924;18.406;2022-12-20T12:18:43;100495.36;;;30.40;27.40
76484;BME280;65318;-33.924;18.406;2022-12-20T12:21:13;100481.79;;;31.08;26.97
76484;BME280;65318;-33.924;18.406;2022-12-20T12:23:38;100473.20;;;30.98;26.86
76484;BME280;65318;-33.924;18.406;2022-12-20T12:26:03;100462.12;;;31.52;26.53
76484;BME280;65318;-33.924;18.406;2022-12-20T12:28:24;100470.20;;;31.01;26.84
76484;BME280;65318;-33.924;18.406;2022-12-20T12:30:55;100470.84;;;30.55;27.11